createdAt,value
2023-02-01T00:01:38.014Z,33.18
2023-02-01T00:04:04.748Z,33.40
2023-02-01T00:06:31.481Z,33.14
2023-02-01T00:08:58.251Z,33.32
2023-02-01T00:11:24.979Z,33.32
2023-02-01T00:13:51.740Z,32.87
2023-02-01T00:16:18.704Z,33.02
2023-02-01T00:18:45.462Z,35.06
2023-02-01T00:21:12.211Z,36.46
2023-02-01T00:23:41.977Z,37.90
2023-02-01T00:26:08.848Z,37.02
2023-02-01T00:28:35.605Z,35.55
2023-02-01T00:31:02.536Z,34.59
2023-02-01T00:33:29.468Z,34.27
2023-02-01T00:35:56.195Z,34.07
2023-02-01T00:38:22.999Z,33.80
2023-02-01T00:40:49.748Z,33.63
2023-02-01T00:43:16.490Z,33.64
2023-02-01T00:45:43.243Z,33.30
2023-02-01T00:48:09.987Z,33.37
2023-02-01T00:50:36.721Z,33.53
2023-02-01T00:53:03.460Z,33.07
2023-02-01T00:55:30.201Z,33.17
2023-02-01T00:57:56.937Z,32.93
2023-02-01T01:00:24.142Z,33.05
2023-02-01T01:02:50.949Z,33.25
2023-02-01T01:05:17.729Z,32.90
2023-02-01T01:07:44.589Z,32.87
2023-02-01T01:10:11.318Z,33.98
2023-02-01T01:12:38.049Z,36.85
2023-02-01T01:15:04.794Z,37.13
2023-02-01T01:17:31.525Z,37.54
2023-02-01T01:19:59.915Z,36.30
2023-02-01T01:22:26.828Z,35.21
2023-02-01T01:24:53.605Z,34.43
2023-02-01T01:27:24.416Z,34.20
2023-02-01T01:29:51.188Z,34.00
2023-02-01T01:32:18.073Z,33.81
2023-02-01T01:34:44.876Z,33.57
2023-02-01T01:37:11.627Z,33.43
2023-02-01T01:39:38.363Z,33.49
2023-02-01T01:42:05.096Z,33.21
2023-02-01T01:44:31.844Z,33.25
2023-02-01T01:46:58.632Z,33.24
2023-02-01T01:49:25.456Z,33.02
2023-02-01T01:51:52.209Z,32.95
2023-02-01T01:54:19.048Z,33.06
2023-02-01T01:56:45.780Z,33.03
2023-02-01T01:59:12.582Z,32.93
2023-02-01T02:01:39.421Z,32.98
2023-02-01T02:04:06.184Z,32.85
2023-02-01T02:06:32.955Z,35.85
2023-02-01T02:08:59.708Z,36.03
2023-02-01T02:11:26.475Z,37.85
2023-02-01T02:13:53.293Z,37.02
2023-02-01T02:16:20.104Z,35.75
2023-02-01T02:18:46.854Z,35.10
2023-02-01T02:21:13.607Z,34.55
2023-02-01T02:23:40.395Z,34.14
2023-02-01T02:26:07.355Z,33.53
2023-02-01T02:28:34.320Z,33.68
2023-02-01T02:31:01.349Z,33.66
2023-02-01T02:33:28.168Z,33.51
2023-02-01T02:35:54.946Z,33.40
2023-02-01T02:38:21.823Z,33.16
2023-02-01T02:40:48.605Z,33.31
2023-02-01T02:43:34.292Z,33.00
2023-02-01T02:46:19.644Z,33.20
2023-02-01T02:48:46.428Z,33.03
2023-02-01T02:51:31.769Z,32.81
2023-02-01T02:54:33.879Z,32.57
2023-02-01T02:57:19.373Z,32.76
2023-02-01T03:00:04.569Z,32.94
2023-02-01T03:02:49.907Z,32.63
2023-02-01T03:07:42.518Z,37.08
2023-02-01T03:10:09.761Z,39.29
2023-02-01T03:12:55.232Z,36.47
2023-02-01T03:15:23.570Z,34.96
2023-02-01T03:17:50.299Z,34.36
2023-02-01T03:20:17.105Z,33.85
2023-02-01T03:22:43.831Z,34.11
2023-02-01T03:25:10.554Z,33.63
2023-02-01T03:27:37.725Z,33.38
2023-02-01T03:30:06.563Z,33.50
2023-02-01T03:32:53.273Z,33.48
2023-02-01T03:35:20.025Z,33.08
2023-02-01T03:37:46.956Z,32.94
2023-02-01T03:40:13.763Z,32.88
2023-02-01T03:42:40.557Z,32.62
2023-02-01T03:45:07.308Z,32.96
2023-02-01T03:47:34.101Z,32.87
2023-02-01T03:50:00.886Z,32.82
2023-02-01T03:52:27.640Z,32.83
2023-02-01T03:54:54.397Z,32.55
2023-02-01T03:57:21.615Z,32.53
2023-02-01T03:59:48.366Z,34.54
2023-02-01T04:02:15.173Z,36.74
2023-02-01T04:04:41.964Z,37.88
2023-02-01T04:07:08.701Z,37.33
2023-02-01T04:09:35.460Z,36.13
2023-02-01T04:12:03.233Z,34.97
2023-02-01T04:14:30.004Z,34.38
2023-02-01T04:16:56.777Z,33.88
2023-02-01T04:19:23.528Z,33.82
2023-02-01T04:21:50.257Z,33.67
2023-02-01T04:24:17.017Z,33.34
2023-02-01T04:26:44.098Z,33.46
2023-02-01T04:29:11.110Z,33.05
2023-02-01T04:31:37.993Z,32.93
2023-02-01T04:34:04.799Z,32.92
2023-02-01T04:36:31.628Z,32.87
2023-02-01T04:38:58.369Z,32.71
2023-02-01T04:41:25.101Z,32.69
2023-02-01T04:43:53.310Z,32.71
2023-02-01T04:46:20.178Z,32.94
2023-02-01T04:48:47.029Z,32.69
2023-02-01T04:51:13.904Z,32.49
2023-02-01T04:53:40.749Z,32.56
2023-02-01T04:56:07.541Z,32.56
2023-02-01T04:58:34.315Z,35.91
2023-02-01T05:01:03.552Z,36.69
2023-02-01T05:03:30.330Z,37.93
2023-02-01T05:05:57.354Z,36.29
2023-02-01T05:08:26.276Z,35.17
2023-02-01T05:10:52.998Z,34.40
2023-02-01T05:13:38.461Z,34.04
2023-02-01T05:16:05.285Z,33.70
2023-02-01T05:18:32.047Z,33.44
2023-02-01T05:20:58.859Z,33.22
2023-02-01T05:23:25.626Z,33.22
2023-02-01T05:25:52.382Z,33.25
2023-02-01T05:28:19.131Z,33.09
2023-02-01T05:30:45.956Z,33.03
2023-02-01T05:33:12.760Z,33.00
2023-02-01T05:35:39.505Z,32.90
2023-02-01T05:38:06.280Z,32.54
2023-02-01T05:40:33.082Z,32.68
2023-02-01T05:42:59.835Z,32.62
2023-02-01T05:45:26.618Z,32.64
2023-02-01T05:47:53.387Z,32.51
2023-02-01T05:50:20.363Z,32.59
2023-02-01T05:52:47.225Z,34.51
2023-02-01T05:55:13.953Z,36.22
2023-02-01T05:57:40.711Z,38.61
2023-02-01T06:00:07.449Z,36.18
2023-02-01T06:02:34.233Z,34.90
2023-02-01T06:05:01.028Z,34.10
2023-02-01T06:07:29.620Z,33.79
2023-02-01T06:09:56.623Z,33.64
2023-02-01T06:12:23.410Z,33.21
2023-02-01T06:14:50.140Z,33.15
2023-02-01T06:17:16.895Z,33.10
2023-02-01T06:19:44.910Z,33.05
2023-02-01T06:22:11.670Z,32.83
2023-02-01T06:24:38.424Z,32.75
2023-02-01T06:27:05.174Z,32.76
2023-02-01T06:29:31.903Z,32.66
2023-02-01T06:31:58.769Z,32.37
2023-02-01T06:34:25.593Z,32.50
2023-02-01T06:36:52.356Z,32.59
2023-02-01T06:39:19.128Z,32.39
2023-02-01T06:41:45.874Z,32.42
2023-02-01T06:44:12.607Z,32.33
2023-02-01T06:46:39.414Z,35.04
2023-02-01T06:49:06.182Z,36.24
2023-02-01T06:51:32.916Z,38.65
2023-02-01T06:53:59.672Z,36.47
2023-02-01T06:56:26.571Z,34.90
2023-02-01T06:58:53.522Z,34.01
2023-02-01T07:01:20.421Z,33.79
2023-02-01T07:03:47.286Z,33.23
2023-02-01T07:06:14.207Z,33.51
2023-02-01T07:08:41.062Z,33.29
2023-02-01T07:11:07.827Z,32.96
2023-02-01T07:13:34.588Z,32.92
2023-02-01T07:16:01.437Z,33.01
2023-02-01T07:18:28.706Z,32.80
2023-02-01T07:20:55.515Z,32.71
2023-02-01T07:23:22.294Z,32.79
2023-02-01T07:25:49.041Z,32.86
2023-02-01T07:28:15.814Z,32.72
2023-02-01T07:30:42.658Z,32.49
2023-02-01T07:33:09.524Z,32.47
2023-02-01T07:35:36.270Z,32.62
2023-02-01T07:38:03.013Z,33.01
2023-02-01T07:40:31.213Z,36.29
2023-02-01T07:42:58.040Z,37.41
2023-02-01T07:45:24.780Z,38.27
2023-02-01T07:47:51.544Z,35.62
2023-02-01T07:50:18.334Z,34.52
2023-02-01T07:52:45.076Z,34.28
2023-02-01T07:55:11.825Z,33.53
2023-02-01T07:57:38.655Z,33.45
2023-02-01T08:00:24.408Z,33.25
2023-02-01T08:02:51.548Z,33.16
2023-02-01T08:05:18.277Z,33.15
2023-02-01T08:07:45.030Z,32.91
2023-02-01T08:10:12.374Z,32.69
2023-02-01T08:12:39.371Z,32.59
2023-02-01T08:15:06.124Z,32.65
2023-02-01T08:17:32.868Z,32.92
2023-02-01T08:19:59.596Z,32.65
2023-02-01T08:22:26.339Z,32.32
2023-02-01T08:25:02.032Z,32.39
2023-02-01T08:27:28.830Z,32.55
2023-02-01T08:29:55.575Z,32.39
2023-02-01T08:32:22.316Z,33.98
2023-02-01T08:34:49.107Z,35.38
2023-02-01T08:37:15.844Z,37.36
2023-02-01T08:39:46.792Z,37.17
2023-02-01T08:42:33.023Z,36.33
2023-02-01T08:44:59.806Z,35.55
2023-02-01T08:47:26.601Z,34.77
2023-02-01T08:49:54.246Z,34.00
2023-02-01T08:52:20.979Z,33.64
2023-02-01T08:54:47.734Z,33.49
2023-02-01T08:57:14.529Z,33.35
2023-02-01T08:59:41.439Z,33.54
2023-02-01T09:02:08.192Z,33.13
2023-02-01T09:04:34.970Z,32.93
2023-02-01T09:07:01.786Z,33.03
2023-02-01T09:09:28.637Z,32.68
2023-02-01T09:11:55.390Z,33.06
2023-02-01T09:14:22.113Z,32.58
2023-02-01T09:16:48.853Z,32.74
2023-02-01T09:19:26.010Z,32.77
2023-02-01T09:21:53.557Z,32.91
2023-02-01T09:24:20.310Z,32.79
2023-02-01T09:26:47.194Z,32.67
2023-02-01T09:29:14.065Z,32.55
2023-02-01T09:31:44.226Z,32.72
2023-02-01T09:34:16.483Z,35.40
2023-02-01T09:36:43.233Z,34.78
2023-02-01T09:39:09.960Z,35.42
2023-02-01T09:41:38.731Z,35.76
2023-02-01T09:44:05.500Z,35.52
2023-02-01T09:46:32.243Z,34.60
2023-02-01T09:48:59.480Z,33.85
2023-02-01T09:51:26.267Z,33.83
2023-02-01T09:53:53.042Z,33.56
2023-02-01T09:56:24.112Z,33.44
2023-02-01T09:58:51.289Z,33.16
2023-02-01T10:01:18.114Z,32.95
2023-02-01T10:03:44.950Z,33.02
2023-02-01T10:06:11.821Z,33.10
2023-02-01T10:08:38.569Z,32.83
2023-02-01T10:11:05.315Z,32.91
2023-02-01T10:13:32.076Z,32.75
2023-02-01T10:15:58.883Z,32.50
2023-02-01T10:18:25.699Z,32.62
2023-02-01T10:20:52.483Z,32.42
2023-02-01T10:23:33.022Z,33.73
2023-02-01T10:26:00.950Z,35.22
2023-02-01T10:28:27.760Z,36.95
2023-02-01T10:30:54.596Z,36.76
2023-02-01T10:33:21.382Z,35.70
2023-02-01T10:35:48.265Z,34.88
2023-02-01T10:38:14.998Z,34.35
2023-02-01T10:40:41.823Z,33.79
2023-02-01T10:43:08.550Z,33.63
2023-02-01T10:45:35.338Z,33.56
2023-02-01T10:48:02.185Z,33.38
2023-02-01T10:50:28.987Z,33.11
2023-02-01T10:52:55.771Z,32.97
2023-02-01T10:55:22.561Z,32.91
2023-02-01T10:57:49.336Z,32.83
2023-02-01T11:00:16.095Z,32.76
2023-02-01T11:02:42.912Z,32.83
2023-02-01T11:05:10.859Z,32.79
2023-02-01T11:07:37.678Z,32.68
2023-02-01T11:10:04.439Z,32.92
2023-02-01T11:12:31.214Z,32.89
2023-02-01T11:14:57.983Z,32.53
2023-02-01T11:17:25.702Z,35.71
2023-02-01T11:19:52.441Z,36.47
2023-02-01T11:22:19.201Z,38.07
2023-02-01T11:24:46.221Z,36.44
2023-02-01T11:27:16.031Z,35.39
2023-02-01T11:29:48.869Z,34.29
2023-02-01T11:32:15.705Z,33.98
2023-02-01T11:34:42.430Z,33.81
2023-02-01T11:37:09.192Z,33.59
2023-02-01T11:39:35.977Z,33.65
2023-02-01T11:42:02.717Z,33.28
2023-02-01T11:44:29.468Z,33.08
2023-02-01T11:46:56.331Z,32.95
2023-02-01T11:49:23.217Z,33.02
2023-02-01T11:51:50.036Z,32.96
2023-02-01T11:54:16.790Z,32.95
2023-02-01T11:56:43.570Z,32.82
2023-02-01T11:59:10.442Z,32.91
2023-02-01T12:01:37.351Z,32.88
2023-02-01T12:04:04.268Z,32.72
2023-02-01T12:06:31.041Z,33.74
2023-02-01T12:08:59.486Z,36.91
2023-02-01T12:11:26.307Z,38.18
2023-02-01T12:13:53.049Z,37.70
2023-02-01T12:16:20.039Z,35.95
2023-02-01T12:18:46.849Z,34.79
2023-02-01T12:21:13.594Z,34.54
2023-02-01T12:23:40.327Z,33.86
2023-02-01T12:26:07.058Z,33.58
2023-02-01T12:28:33.937Z,33.83
2023-02-01T12:31:00.791Z,33.54
2023-02-01T12:33:27.528Z,33.44
2023-02-01T12:35:54.409Z,33.22
2023-02-01T12:38:21.317Z,33.07
2023-02-01T12:40:48.102Z,33.03
2023-02-01T12:43:18.190Z,32.96
2023-02-01T12:45:45.112Z,32.95
2023-02-01T12:48:11.902Z,33.08
2023-02-01T12:50:38.737Z,32.83
2023-02-01T12:53:05.472Z,32.58
2023-02-01T12:55:32.262Z,32.77
2023-02-01T12:57:59.015Z,32.96
2023-02-01T13:00:26.164Z,35.28
2023-02-01T13:02:53.235Z,37.62
2023-02-01T13:05:20.143Z,40.04
2023-02-01T13:07:46.878Z,36.74
2023-02-01T13:10:13.653Z,35.35
2023-02-01T13:12:40.464Z,34.65
2023-02-01T13:15:07.200Z,34.52
2023-02-01T13:17:33.937Z,34.07
2023-02-01T13:20:00.726Z,33.79
2023-02-01T13:22:27.631Z,33.55
2023-02-01T13:24:54.399Z,33.41
2023-02-01T13:27:21.175Z,33.42
2023-02-01T13:29:48.363Z,33.32
2023-02-01T13:32:18.225Z,33.04
2023-02-01T13:34:45.312Z,33.22
2023-02-01T13:37:12.158Z,33.15
2023-02-01T13:39:38.940Z,33.14
2023-02-01T13:42:06.793Z,32.60
2023-02-01T13:44:33.523Z,32.74
2023-02-01T13:47:00.268Z,33.04
2023-02-01T13:49:27.092Z,32.84
2023-02-01T13:51:53.827Z,33.78
2023-02-01T13:54:20.561Z,37.28
2023-02-01T13:56:47.302Z,37.87
2023-02-01T13:59:15.556Z,38.03
2023-02-01T14:01:42.831Z,36.12
2023-02-01T14:04:09.689Z,35.11
2023-02-01T14:06:36.590Z,34.33
2023-02-01T14:09:03.517Z,34.24
2023-02-01T14:11:30.271Z,33.82
2023-02-01T14:13:57.075Z,33.75
2023-02-01T14:16:23.979Z,33.66
2023-02-01T14:18:50.770Z,33.74
2023-02-01T14:21:24.544Z,33.42
2023-02-01T14:23:51.345Z,33.33
2023-02-01T14:26:18.185Z,33.33
2023-02-01T14:28:44.935Z,33.12
2023-02-01T14:31:11.818Z,32.64
2023-02-01T14:33:38.672Z,33.20
2023-02-01T14:36:05.571Z,33.06
2023-02-01T14:38:33.121Z,32.96
2023-02-01T14:40:59.857Z,36.52
2023-02-01T14:43:32.956Z,37.26
2023-02-01T14:46:00.989Z,38.23
2023-02-01T14:48:27.841Z,37.81
2023-02-01T14:50:54.590Z,37.02
2023-02-01T14:53:22.909Z,36.59
2023-02-01T14:55:50.545Z,37.46
2023-02-01T14:58:19.756Z,37.33
2023-02-01T15:00:46.521Z,37.86
2023-02-01T15:03:13.270Z,37.09
2023-02-01T15:05:40.025Z,35.71
2023-02-01T15:08:06.823Z,35.09
2023-02-01T15:10:33.562Z,34.75
2023-02-01T15:13:00.290Z,34.12
2023-02-01T15:15:27.421Z,34.13
2023-02-01T15:17:54.245Z,33.85
2023-02-01T15:20:22.227Z,33.93
2023-02-01T15:22:50.640Z,34.15
2023-02-01T15:25:18.356Z,34.13
2023-02-01T15:27:45.248Z,33.77
2023-02-01T15:30:12.193Z,33.76
2023-02-01T15:32:39.463Z,33.58
2023-02-01T15:35:06.420Z,33.73
2023-02-01T15:37:33.170Z,33.45
2023-02-01T15:39:59.897Z,33.44
2023-02-01T15:42:26.649Z,33.36
2023-02-01T15:44:53.422Z,33.39
2023-02-01T15:47:20.146Z,33.55
2023-02-01T15:49:46.982Z,33.07
2023-02-01T15:52:13.765Z,33.15
2023-02-01T15:54:40.590Z,33.24
2023-02-01T15:57:07.399Z,33.08
2023-02-01T15:59:34.280Z,32.96
2023-02-01T16:02:01.073Z,33.01
2023-02-01T16:04:30.557Z,34.37
2023-02-01T16:06:57.332Z,34.90
2023-02-01T16:09:25.279Z,35.67
2023-02-01T16:11:52.045Z,36.55
2023-02-01T16:14:18.820Z,36.57
2023-02-01T16:16:45.606Z,35.38
2023-02-01T16:19:12.387Z,34.94
2023-02-01T16:21:39.188Z,34.61
2023-02-01T16:24:06.950Z,34.38
2023-02-01T16:26:33.866Z,34.05
2023-02-01T16:29:02.750Z,34.23
2023-02-01T16:31:29.623Z,33.92
2023-02-01T16:33:56.427Z,33.74
2023-02-01T16:36:23.203Z,33.58
2023-02-01T16:38:50.428Z,33.49
2023-02-01T16:41:17.190Z,33.49
2023-02-01T16:43:44.024Z,33.45
2023-02-01T16:46:10.812Z,33.48
2023-02-01T16:48:37.580Z,33.30
2023-02-01T16:51:04.426Z,33.18
2023-02-01T16:53:34.519Z,33.15
2023-02-01T16:56:06.541Z,35.49
2023-02-01T16:58:33.387Z,36.27
2023-02-01T17:01:00.154Z,37.97
2023-02-01T17:03:26.919Z,37.47
2023-02-01T17:05:53.659Z,36.03
2023-02-01T17:08:20.509Z,35.00
2023-02-01T17:10:47.257Z,34.82
2023-02-01T17:13:14.012Z,34.36
2023-02-01T17:15:40.803Z,33.68
2023-02-01T17:18:07.563Z,33.65
2023-02-01T17:20:34.445Z,33.73
2023-02-01T17:23:01.213Z,33.43
2023-02-01T17:25:28.173Z,33.36
2023-02-01T17:27:54.919Z,33.24
2023-02-01T17:30:21.678Z,33.10
2023-02-01T17:32:48.472Z,32.95
2023-02-01T17:35:15.652Z,33.17
2023-02-01T17:37:42.374Z,32.92
2023-02-01T17:40:10.433Z,32.96
2023-02-01T17:42:39.055Z,33.08
2023-02-01T17:45:05.982Z,33.29
2023-02-01T17:47:33.923Z,33.69
2023-02-01T17:50:00.706Z,34.67
2023-02-01T17:52:28.999Z,35.19
2023-02-01T17:54:55.727Z,35.54
2023-02-01T17:57:22.495Z,36.87
2023-02-01T17:59:49.244Z,36.96
2023-02-01T18:02:16.047Z,35.98
2023-02-01T18:04:42.807Z,35.45
2023-02-01T18:07:09.586Z,34.89
2023-02-01T18:09:36.317Z,34.36
2023-02-01T18:12:03.119Z,34.20
2023-02-01T18:14:29.880Z,34.17
2023-02-01T18:16:56.675Z,34.07
2023-02-01T18:19:23.509Z,33.78
2023-02-01T18:21:50.673Z,33.60
2023-02-01T18:24:18.689Z,33.48
2023-02-01T18:26:45.541Z,33.57
2023-02-01T18:29:12.372Z,33.42
2023-02-01T18:31:39.208Z,33.45
2023-02-01T18:34:06.013Z,33.23
2023-02-01T18:36:32.745Z,33.15
2023-02-01T18:38:59.517Z,33.39
2023-02-01T18:41:26.351Z,32.97
2023-02-01T18:43:53.155Z,33.24
2023-02-01T18:46:21.519Z,34.29
2023-02-01T18:48:48.431Z,35.44
2023-02-01T18:51:15.175Z,35.92
2023-02-01T18:53:41.899Z,37.10
2023-02-01T18:56:08.767Z,36.79
2023-02-01T18:58:35.745Z,36.16
2023-02-01T19:01:02.505Z,35.14
2023-02-01T19:03:30.209Z,34.52
2023-02-01T19:05:57.063Z,34.52
2023-02-01T19:08:26.872Z,34.23
2023-02-01T19:10:53.661Z,33.94
2023-02-01T19:13:23.299Z,34.05
2023-02-01T19:15:50.089Z,33.96
2023-02-01T19:18:20.116Z,33.72
2023-02-01T19:20:46.915Z,33.84
2023-02-01T19:23:13.736Z,33.77
2023-02-01T19:25:40.505Z,33.38
2023-02-01T19:28:07.238Z,33.57
2023-02-01T19:30:34.111Z,33.32
2023-02-01T19:33:02.454Z,33.52
2023-02-01T19:35:29.187Z,33.26
2023-02-01T19:37:56.233Z,33.41
2023-02-01T19:40:23.037Z,33.14
2023-02-01T19:42:49.857Z,34.52
2023-02-01T19:45:16.614Z,35.52
2023-02-01T19:47:43.382Z,35.40
2023-02-01T19:50:10.246Z,36.70
2023-02-01T19:52:37.046Z,36.43
2023-02-01T19:55:03.800Z,35.40
2023-02-01T19:57:30.547Z,34.85
2023-02-01T19:59:57.282Z,34.29
2023-02-01T20:02:24.554Z,34.35
2023-02-01T20:04:51.379Z,34.03
2023-02-01T20:07:18.174Z,34.07
2023-02-01T20:09:44.931Z,33.72
2023-02-01T20:12:11.743Z,33.99
2023-02-01T20:14:38.480Z,33.54
2023-02-01T20:17:05.282Z,33.48
2023-02-01T20:19:32.014Z,33.46
2023-02-01T20:21:59.304Z,33.38
2023-02-01T20:24:26.069Z,33.34
2023-02-01T20:26:53.701Z,33.58
2023-02-01T20:29:20.499Z,33.33
2023-02-01T20:31:47.296Z,33.23
2023-02-01T20:34:14.092Z,34.18
2023-02-01T20:36:42.338Z,35.76
2023-02-01T20:39:10.598Z,36.81
2023-02-01T20:41:37.852Z,38.02
2023-02-01T20:44:04.635Z,36.72
2023-02-01T20:46:31.415Z,35.18
2023-02-01T20:48:58.200Z,34.71
2023-02-01T20:51:24.933Z,34.35
2023-02-01T20:53:53.697Z,34.15
2023-02-01T20:56:21.097Z,33.92
2023-02-01T20:58:47.841Z,33.95
2023-02-01T21:01:14.680Z,33.72
2023-02-01T21:03:41.542Z,33.70
2023-02-01T21:06:08.450Z,33.53
2023-02-01T21:08:35.209Z,33.42
2023-02-01T21:11:02.004Z,33.64
2023-02-01T21:13:30.210Z,33.55
2023-02-01T21:15:56.966Z,33.14
2023-02-01T21:18:23.742Z,33.11
2023-02-01T21:20:50.544Z,33.29
2023-02-01T21:23:17.329Z,33.14
2023-02-01T21:25:44.068Z,35.01
2023-02-01T21:28:10.941Z,34.41
2023-02-01T21:30:37.788Z,35.31
2023-02-01T21:33:04.548Z,36.48
2023-02-01T21:35:31.285Z,35.54
2023-02-01T21:37:58.041Z,35.25
2023-02-01T21:40:24.781Z,34.88
2023-02-01T21:42:51.617Z,34.78
2023-02-01T21:45:18.395Z,34.21
2023-02-01T21:47:45.139Z,34.03
2023-02-01T21:50:11.884Z,33.86
2023-02-01T21:52:39.520Z,33.69
2023-02-01T21:55:07.172Z,33.71
2023-02-01T21:57:34.092Z,33.52
2023-02-01T22:00:00.844Z,33.57
2023-02-01T22:02:27.680Z,33.72
2023-02-01T22:04:54.466Z,33.50
2023-02-01T22:07:21.223Z,33.41
2023-02-01T22:09:48.020Z,33.40
2023-02-01T22:12:14.751Z,33.17
2023-02-01T22:14:44.564Z,33.20
2023-02-01T22:17:12.816Z,34.18
2023-02-01T22:19:39.597Z,36.27
2023-02-01T22:22:06.345Z,37.15
2023-02-01T22:24:35.363Z,37.61
2023-02-01T22:27:13.377Z,36.44
2023-02-01T22:29:41.216Z,34.94
2023-02-01T22:32:08.439Z,34.49
2023-02-01T22:34:35.237Z,34.32
2023-02-01T22:37:02.979Z,34.03
2023-02-01T22:39:29.724Z,34.01
2023-02-01T22:41:56.458Z,33.80
2023-02-01T22:44:23.671Z,33.60
2023-02-01T22:46:50.497Z,33.45
2023-02-01T22:49:17.321Z,33.43
2023-02-01T22:51:44.137Z,33.49
2023-02-01T22:54:10.868Z,33.27
2023-02-01T22:56:37.684Z,33.34
2023-02-01T22:59:04.557Z,33.19
2023-02-01T23:01:31.381Z,33.11
2023-02-01T23:03:58.398Z,33.16
2023-02-01T23:06:25.261Z,33.35
2023-02-01T23:08:51.993Z,33.01
2023-02-01T23:11:18.721Z,36.03
2023-02-01T23:13:45.452Z,36.84
2023-02-01T23:16:12.259Z,38.12
2023-02-01T23:18:39.025Z,37.15
2023-02-01T23:21:05.819Z,35.56
2023-02-01T23:23:32.590Z,34.73
2023-02-01T23:25:59.368Z,34.50
2023-02-01T23:28:26.149Z,34.23
2023-02-01T23:30:52.985Z,33.91
2023-02-01T23:33:19.739Z,33.94
2023-02-01T23:35:46.490Z,33.60
2023-02-01T23:38:13.233Z,33.47
2023-02-01T23:40:39.980Z,33.50
2023-02-01T23:43:25.454Z,33.22
2023-02-01T23:45:52.268Z,33.37
2023-02-01T23:48:19.125Z,33.03
2023-02-01T23:50:45.989Z,33.21
2023-02-01T23:53:13.170Z,33.34
2023-02-01T23:55:39.890Z,33.10
2023-02-01T23:58:06.671Z,33.10
